Time;durP1;ratioP1;P1;durP2;ratioP2;P2;SDS_P1;SDS_P2;PMS_P1;PMS_P2;Temp;Humidity;BMP_temperature;BMP_pressure;BME280_temperature;BME280_humidity;BME280_pressure;Samples;Min_cycle;Max_cycle;Signal;HPM_P1;HPM_P2
2023/06/14 00:01:05;;;;;;;8.98;5.68;;;;;17.80;100834.00;;;;10182930;28;20583;-75
2023/06/14 00:06:08;;;;;;;8.85;5.90;;;;;17.70;100849.00;;;;10181369;28;20209;-75
2023/06/14 00:11:10;;;;;;;9.85;5.93;;;;;17.70;100831.00;;;;10185222;28;20224;-74
2023/06/14 00:16:12;;;;;;;9.38;5.85;;;;;17.60;100834.00;;;;10182700;28;20912;-74
2023/06/14 00:21:14;;;;;;;7.68;5.72;;;;;17.50;100825.00;;;;10180945;28;21282;-74
2023/06/14 00:26:17;;;;;;;11.63;5.63;;;;;17.40;100830.00;;;;10177967;28;20932;-74
2023/06/14 00:31:19;;;;;;;8.35;6.15;;;;;17.40;100822.00;;;;10179607;28;20271;-74
2023/06/14 00:36:21;;;;;;;13.25;6.03;;;;;17.40;100829.00;;;;10174598;28;20875;-73
2023/06/14 00:41:24;;;;;;;7.53;6.18;;;;;17.40;100829.00;;;;10177201;28;20295;-76
2023/06/14 00:46:26;;;;;;;13.40;6.07;;;;;17.40;100833.00;;;;10183466;28;20243;-76
2023/06/14 00:51:29;;;;;;;8.57;5.45;;;;;17.40;100832.00;;;;10179787;28;20758;-76
2023/06/14 00:56:31;;;;;;;10.48;5.70;;;;;17.30;100833.00;;;;10180523;28;20868;-77
2023/06/14 01:01:33;;;;;;;6.78;6.07;;;;;17.20;100833.00;;;;10179667;28;20209;-74
2023/06/14 01:06:44;;;;;;;10.63;6.40;;;;;17.10;100837.00;;;;10172153;28;20598;-76
2023/06/14 01:12:16;;;;;;;10.60;5.97;;;;;17.00;100846.00;;;;10147270;28;20240;-76
2023/06/14 01:17:18;;;;;;;10.87;6.03;;;;;16.80;100847.00;;;;10172065;28;20248;-78
2023/06/14 01:22:26;;;;;;;9.57;6.03;;;;;16.70;100843.00;;;;10165909;28;21023;-77
2023/06/14 01:27:32;;;;;;;7.17;5.70;;;;;16.50;100858.00;;;;10177504;28;20212;-77
2023/06/14 01:32:34;;;;;;;7.17;5.63;;;;;16.50;100858.00;;;;10171617;28;21460;-78
2023/06/14 01:37:37;;;;;;;7.30;5.57;;;;;16.40;100853.00;;;;10169850;28;21918;-77
2023/06/14 01:42:40;;;;;;;9.73;6.00;;;;;16.30;100857.00;;;;10175487;28;20439;-77
2023/06/14 01:47:45;;;;;;;10.07;6.77;;;;;16.20;100849.00;;;;10176551;28;20214;-77
2023/06/14 01:52:47;;;;;;;7.47;6.70;;;;;16.20;100856.00;;;;10175575;28;21867;-77
2023/06/14 01:57:49;;;;;;;7.27;6.47;;;;;16.10;100856.00;;;;10170393;28;20267;-76
2023/06/14 02:02:52;;;;;;;9.57;6.13;;;;;16.10;100854.00;;;;10162525;28;20461;-75
2023/06/14 02:07:54;;;;;;;8.87;6.63;;;;;16.10;100859.00;;;;10170196;28;20251;-76
2023/06/14 02:12:56;;;;;;;7.43;6.50;;;;;16.00;100853.00;;;;10181044;28;20221;-76
2023/06/14 02:17:58;;;;;;;7.87;5.90;;;;;15.90;100857.00;;;;10179982;28;20225;-77
2023/06/14 02:23:00;;;;;;;7.87;7.07;;;;;15.90;100854.00;;;;10177308;28;20212;-75
2023/06/14 02:28:06;;;;;;;8.60;6.70;;;;;15.70;100853.00;;;;10163601;28;20240;-76
2023/06/14 02:33:12;;;;;;;8.60;6.73;;;;;15.60;100856.00;;;;10175288;28;21471;-76
2023/06/14 02:38:18;;;;;;;8.53;7.00;;;;;15.50;100859.00;;;;10166009;28;20356;-74
2023/06/14 02:43:23;;;;;;;12.13;6.53;;;;;15.40;100860.00;;;;10160687;28;21640;-75
2023/06/14 02:48:25;;;;;;;10.97;7.03;;;;;15.30;100857.00;;;;10159723;28;20213;-78
2023/06/14 02:53:27;;;;;;;10.67;6.97;;;;;15.30;100851.00;;;;10159794;28;20229;-74
2023/06/14 02:58:29;;;;;;;12.27;7.27;;;;;15.20;100853.00;;;;10169171;28;20770;-73
2023/06/14 03:03:32;;;;;;;10.73;7.93;;;;;15.10;100850.00;;;;10174311;28;20282;-76
2023/06/14 03:08:38;;;;;;;10.03;7.33;;;;;15.00;100858.00;;;;10171839;28;20233;-77
2023/06/14 03:13:46;;;;;;;11.10;7.20;;;;;15.00;100852.00;;;;10154840;28;21540;-77
2023/06/14 03:18:50;;;;;;;7.77;6.97;;;;;14.90;100865.00;;;;10163812;28;20265;-78
2023/06/14 03:23:53;;;;;;;8.67;7.77;;;;;14.90;100877.00;;;;10163070;28;20205;-76
2023/06/14 03:28:55;;;;;;;11.07;7.73;;;;;14.80;100874.00;;;;10161949;28;20963;-78
2023/06/14 03:33:58;;;;;;;11.37;6.93;;;;;14.70;100890.00;;;;10165236;28;20225;-75
2023/06/14 03:39:01;;;;;;;10.13;8.03;;;;;14.70;100888.00;;;;10171269;28;20213;-76
2023/06/14 03:44:04;;;;;;;11.40;8.03;;;;;14.70;100898.00;;;;10172796;28;20213;-75
2023/06/14 03:49:07;;;;;;;13.40;8.00;;;;;14.70;100893.00;;;;10171608;28;20444;-75
2023/06/14 03:54:09;;;;;;;13.37;8.03;;;;;14.80;100896.00;;;;10140957;28;20224;-74
2023/06/14 03:59:31;;;;;;;12.00;7.47;;;;;15.00;100898.00;;;;10168146;28;21908;-76
2023/06/14 04:04:35;;;;;;;8.63;7.33;;;;;15.30;100908.00;;;;10172138;28;20233;-77
2023/06/14 04:09:39;;;;;;;13.30;7.53;;;;;15.60;100911.00;;;;10156475;28;20236;-77
2023/06/14 04:14:42;;;;;;;11.33;8.70;;;;;15.70;100921.00;;;;10171316;28;21781;-77
2023/06/14 04:19:47;;;;;;;10.53;8.17;;;;;15.80;100916.00;;;;10172028;28;20209;-75
2023/06/14 04:24:50;;;;;;;10.87;7.60;;;;;15.90;100921.00;;;;10169837;28;20276;-75
2023/06/14 04:30:07;;;;;;;9.83;8.07;;;;;16.00;100928.00;;;;10166269;28;20300;-74
2023/06/14 04:35:15;;;;;;;12.03;8.20;;;;;16.10;100938.00;;;;10171746;28;20794;-75
2023/06/14 04:40:20;;;;;;;10.73;8.50;;;;;16.20;100936.00;;;;10154923;28;20268;-74
2023/06/14 04:45:23;;;;;;;10.07;9.03;;;;;16.30;100943.00;;;;10158116;28;21673;-74
2023/06/14 04:50:26;;;;;;;11.87;9.97;;;;;16.50;100947.00;;;;10160543;28;20220;-74
2023/06/14 04:55:28;;;;;;;10.37;9.00;;;;;16.70;100950.00;;;;10174254;28;20244;-74
2023/06/14 05:00:30;;;;;;;15.10;9.40;;;;;17.00;100942.00;;;;10161260;28;20206;-74
2023/06/14 05:05:34;;;;;;;13.07;9.27;;;;;17.40;100946.00;;;;10176964;28;20232;-74
2023/06/14 05:10:36;;;;;;;11.55;9.00;;;;;17.90;100950.00;;;;10176809;28;21032;-74
2023/06/14 05:15:38;;;;;;;12.43;8.57;;;;;18.30;100949.00;;;;10177434;28;20970;-74
2023/06/14 05:20:44;;;;;;;11.80;9.00;;;;;18.70;100951.00;;;;10173285;28;20217;-74
2023/06/14 05:25:47;;;;;;;14.68;8.85;;;;;19.20;100956.00;;;;10178556;28;20642;-73
2023/06/14 05:30:49;;;;;;;14.27;8.55;;;;;19.60;100959.00;;;;10174365;28;20252;-74
2023/06/14 05:35:51;;;;;;;12.95;8.27;;;;;20.10;100956.00;;;;10176878;28;20944;-75
2023/06/14 05:40:53;;;;;;;15.40;8.52;;;;;20.60;100960.00;;;;10177166;28;20275;-75
2023/06/14 05:45:56;;;;;;;16.75;8.80;;;;;21.00;100967.00;;;;10175589;28;21484;-75
2023/06/14 05:50:58;;;;;;;11.73;8.70;;;;;21.30;100965.00;;;;10172302;28;20240;-75
2023/06/14 05:56:00;;;;;;;12.52;8.02;;;;;21.60;100969.00;;;;10171012;28;20255;-74
2023/06/14 06:01:03;;;;;;;9.68;8.20;;;;;21.90;100973.00;;;;10177651;28;20696;-75
2023/06/14 06:06:05;;;;;;;9.65;7.75;;;;;22.10;100976.00;;;;10170441;28;20220;-74
2023/06/14 06:11:07;;;;;;;10.90;8.00;;;;;22.40;100977.00;;;;10170044;28;20905;-76
2023/06/14 06:16:10;;;;;;;10.20;7.72;;;;;22.80;100988.00;;;;10166386;28;20336;-75
2023/06/14 06:21:12;;;;;;;11.05;7.97;;;;;23.10;100981.00;;;;10155827;28;20229;-76
2023/06/14 06:26:14;;;;;;;10.65;7.65;;;;;23.40;100988.00;;;;10160956;28;20248;-76
2023/06/14 06:31:16;;;;;;;14.32;8.15;;;;;23.70;100985.00;;;;10183563;28;20232;-75
2023/06/14 06:36:18;;;;;;;11.60;8.20;;;;;24.10;100987.00;;;;10193952;28;20231;-76
2023/06/14 06:41:20;;;;;;;10.27;7.32;;;;;24.60;100983.00;;;;10176630;28;20202;-76
2023/06/14 06:46:22;;;;;;;13.07;7.00;;;;;25.00;100988.00;;;;10170027;28;20291;-77
2023/06/14 06:51:24;;;;;;;13.15;7.63;;;;;25.30;100996.00;;;;10201027;28;20209;-76
2023/06/14 06:56:26;;;;;;;13.10;7.13;;;;;25.60;100999.00;;;;10182166;28;20228;-76
2023/06/14 07:01:28;;;;;;;13.45;7.18;;;;;26.00;100998.00;;;;10179683;28;20596;-77
2023/06/14 07:06:31;;;;;;;14.45;7.07;;;;;26.40;101008.00;;;;10170230;28;21291;-77
2023/06/14 07:11:33;;;;;;;14.13;7.13;;;;;26.80;101005.00;;;;10171417;28;20212;-75
2023/06/14 07:16:35;;;;;;;14.07;7.38;;;;;27.10;101012.00;;;;10150353;28;20267;-76
2023/06/14 07:21:38;;;;;;;8.27;6.15;;;;;27.30;101017.00;;;;10167090;28;20762;-77
2023/06/14 07:26:40;;;;;;;8.50;6.75;;;;;27.70;101008.00;;;;10155419;28;20216;-77
2023/06/14 07:31:42;;;;;;;8.02;6.30;;;;;27.90;101010.00;;;;10155738;28;20330;-77
2023/06/14 07:36:44;;;;;;;8.88;7.00;;;;;28.30;101010.00;;;;10163054;28;20217;-77
2023/06/14 07:41:46;;;;;;;10.80;6.15;;;;;28.40;101013.00;;;;10152477;28;20264;-76
2023/06/14 07:46:51;;;;;;;10.98;5.80;;;;;28.90;101019.00;;;;10160123;28;21328;-77
2023/06/14 07:51:53;;;;;;;11.15;6.82;;;;;29.30;101013.00;;;;10225097;28;20268;-76
2023/06/14 07:56:56;;;;;;;10.57;6.38;;;;;29.70;101019.00;;;;10235467;28;20741;-76
2023/06/14 08:01:58;;;;;;;9.88;5.88;;;;;29.90;101022.00;;;;10232575;28;20466;-76
2023/06/14 08:07:00;;;;;;;10.23;5.30;;;;;30.40;101023.00;;;;10242950;28;20523;-76
2023/06/14 08:12:03;;;;;;;10.15;6.78;;;;;30.60;101026.00;;;;10223860;28;20223;-77
2023/06/14 08:17:06;;;;;;;14.13;5.88;;;;;31.00;101030.00;;;;10192617;29;20232;-76
2023/06/14 08:22:11;;;;;;;11.32;6.10;;;;;31.50;101031.00;;;;10202276;28;20210;-83
2023/06/14 08:27:13;;;;;;;7.55;6.03;;;;;31.50;101031.00;;;;10233854;28;20660;-75
2023/06/14 08:32:15;;;;;;;8.77;5.45;;;;;31.70;101035.00;;;;10234840;28;20209;-76
2023/06/14 08:37:17;;;;;;;8.70;5.60;;;;;32.00;101033.00;;;;10234528;28;20218;-76
2023/06/14 08:42:21;;;;;;;8.50;5.38;;;;;32.20;101042.00;;;;10245694;28;20205;-76
2023/06/14 08:47:36;;;;;;;8.10;5.40;;;;;32.20;101035.00;;;;10242659;28;20604;-76
2023/06/14 08:52:49;;;;;;;10.25;5.25;;;;;32.60;101036.00;;;;10238042;28;20200;-76
2023/06/14 08:57:53;;;;;;;8.15;5.22;;;;;32.90;101036.00;;;;10251453;28;20217;-77
2023/06/14 09:02:58;;;;;;;9.98;5.72;;;;;33.00;101027.00;;;;10246737;28;20288;-75
2023/06/14 09:08:01;;;;;;;9.63;6.47;;;;;33.00;101042.00;;;;10241816;28;20205;-76
2023/06/14 09:13:07;;;;;;;6.78;5.10;;;;;33.40;101043.00;;;;10245613;28;20208;-75
2023/06/14 09:18:10;;;;;;;7.85;5.35;;;;;33.30;101049.00;;;;10239945;28;20249;-77
2023/06/14 09:23:13;;;;;;;7.35;5.38;;;;;33.20;101049.00;;;;10225075;28;20232;-77
2023/06/14 09:28:15;;;;;;;7.93;5.93;;;;;33.20;101054.00;;;;10248313;28;20213;-74
2023/06/14 09:33:18;;;;;;;6.60;5.20;;;;;33.20;101054.00;;;;10240801;28;20196;-75
2023/06/14 09:38:20;;;;;;;5.43;4.93;;;;;33.00;101064.00;;;;10210493;28;20229;-75
2023/06/14 09:43:23;;;;;;;5.28;4.78;;;;;32.90;101071.00;;;;10224727;28;20214;-75
2023/06/14 09:48:25;;;;;;;10.00;4.45;;;;;33.40;101068.00;;;;10237028;28;20698;-76
2023/06/14 09:53:30;;;;;;;5.97;5.03;;;;;33.80;101072.00;;;;10236307;28;20210;-77
2023/06/14 09:58:37;;;;;;;7.18;4.97;;;;;33.90;101069.00;;;;10238805;28;20233;-75
2023/06/14 10:03:39;;;;;;;7.30;4.53;;;;;33.90;101064.00;;;;10227908;28;20229;-76
2023/06/14 10:09:04;;;;;;;6.55;4.63;;;;;34.30;101076.00;;;;10242192;28;20204;-76
2023/06/14 10:14:07;;;;;;;5.47;4.32;;;;;34.40;101073.00;;;;10240577;28;20198;-75
2023/06/14 10:19:21;;;;;;;4.22;3.83;;;;;34.50;101075.00;;;;10233962;28;20284;-76
2023/06/14 10:24:35;;;;;;;5.47;4.25;;;;;34.20;101066.00;;;;10241078;28;20196;-77
2023/06/14 10:30:07;;;;;;;6.38;3.55;;;;;34.40;101071.00;;;;10226919;28;20264;-77
2023/06/14 10:35:16;;;;;;;4.25;3.85;;;;;34.50;101070.00;;;;10219903;28;20568;-75
2023/06/14 10:40:31;;;;;;;9.45;4.18;;;;;34.60;101078.00;;;;10201155;28;20206;-77
2023/06/14 10:45:33;;;;;;;8.52;3.83;;;;;35.00;101071.00;;;;10242044;28;20206;-79
2023/06/14 10:50:35;;;;;;;5.28;3.53;;;;;35.40;101076.00;;;;10237326;28;20675;-76
2023/06/14 10:55:37;;;;;;;5.07;3.67;;;;;35.50;101076.00;;;;10221403;28;20221;-76
2023/06/14 11:00:45;;;;;;;5.80;3.72;;;;;35.60;101074.00;;;;10228248;28;20288;-76
2023/06/14 11:05:47;;;;;;;10.65;4.53;;;;;35.50;101064.00;;;;10230853;28;20304;-76
2023/06/14 11:10:50;;;;;;;6.13;4.30;;;;;35.60;101065.00;;;;10229962;28;20216;-74
2023/06/14 11:15:57;;;;;;;13.23;3.97;;;;;35.40;101067.00;;;;10218031;28;20202;-88
2023/06/14 11:20:59;;;;;;;5.93;4.18;;;;;35.60;101060.00;;;;10256915;28;20200;-82
2023/06/14 11:26:02;;;;;;;4.28;3.70;;;;;36.40;101062.00;;;;10255960;28;20249;-78
2023/06/14 11:31:04;;;;;;;9.43;4.05;;;;;36.60;101054.00;;;;10227551;28;20260;-78
2023/06/14 11:36:08;;;;;;;6.95;3.30;;;;;36.30;101053.00;;;;10227658;28;20950;-79
2023/06/14 11:41:10;;;;;;;6.47;3.92;;;;;36.10;101044.00;;;;10232244;28;20760;-77
2023/06/14 11:46:15;;;;;;;6.13;3.65;;;;;36.40;101053.00;;;;10235069;28;20711;-73
2023/06/14 11:51:18;;;;;;;7.63;3.20;;;;;36.70;101052.00;;;;10225295;28;20201;-75
2023/06/14 11:56:21;;;;;;;4.30;3.40;;;;;36.70;101046.00;;;;10231062;28;20219;-75
2023/06/14 12:01:23;;;;;;;6.57;3.80;;;;;36.60;101047.00;;;;10240671;28;20845;-75
2023/06/14 12:06:28;;;;;;;6.10;3.20;;;;;36.80;101046.00;;;;10240279;28;20220;-74
2023/06/14 12:11:37;;;;;;;7.57;3.08;;;;;36.10;101045.00;;;;10230167;28;20233;-76
2023/06/14 12:16:41;;;;;;;5.35;3.30;;;;;36.20;101053.00;;;;10234050;28;20635;-75
2023/06/14 12:21:48;;;;;;;5.25;3.30;;;;;36.30;101041.00;;;;10235955;28;20273;-75
2023/06/14 12:26:52;;;;;;;5.60;3.40;;;;;36.50;101053.00;;;;10237536;28;20217;-75
2023/06/14 12:31:56;;;;;;;3.20;2.65;;;;;36.50;101045.00;;;;10238901;28;20683;-75
2023/06/14 12:36:59;;;;;;;8.90;3.55;;;;;36.60;101049.00;;;;10249308;28;20202;-75
2023/06/14 12:42:03;;;;;;;5.80;3.20;;;;;36.60;101058.00;;;;10243497;28;20244;-76
2023/06/14 12:47:06;;;;;;;3.95;2.78;;;;;36.80;101054.00;;;;10242686;28;20236;-75
2023/06/14 12:52:08;;;;;;;4.15;3.20;;;;;36.60;101044.00;;;;10229247;28;20201;-77
2023/06/14 12:57:11;;;;;;;4.60;3.28;;;;;36.50;101052.00;;;;10239395;28;20196;-76
2023/06/14 13:02:15;;;;;;;6.65;3.03;;;;;36.40;101040.00;;;;10236451;28;20721;-76
2023/06/14 13:07:17;;;;;;;6.10;2.80;;;;;36.20;101046.00;;;;10230880;28;20233;-76
2023/06/14 13:12:19;;;;;;;5.60;2.75;;;;;36.10;101041.00;;;;10214817;29;20667;-75
2023/06/14 13:17:21;;;;;;;2.92;2.70;;;;;35.90;101058.00;;;;10217038;28;20802;-76
2023/06/14 13:22:25;;;;;;;4.82;2.60;;;;;35.90;101047.00;;;;10213881;29;20195;-76
2023/06/14 13:27:27;;;;;;;4.05;2.28;;;;;35.80;101044.00;;;;10237618;28;20220;-77
2023/06/14 13:32:29;;;;;;;4.57;2.35;;;;;35.80;101043.00;;;;10251775;28;20210;-76
2023/06/14 13:37:31;;;;;;;4.68;2.42;;;;;35.60;101051.00;;;;10236012;28;20301;-76
2023/06/14 13:42:33;;;;;;;2.38;2.17;;;;;35.20;101041.00;;;;10225893;28;20264;-77
2023/06/14 13:47:36;;;;;;;3.50;1.77;;;;;35.40;101042.00;;;;10241694;28;20221;-76
2023/06/14 13:52:38;;;;;;;5.43;1.90;;;;;35.30;101044.00;;;;10253200;28;20209;-76
2023/06/14 13:57:40;;;;;;;2.80;1.92;;;;;35.20;101046.00;;;;10247154;28;20202;-77
2023/06/14 14:02:42;;;;;;;3.58;1.50;;;;;35.00;101040.00;;;;10245026;28;20209;-77
2023/06/14 14:07:45;;;;;;;5.53;1.40;;;;;35.00;101052.00;;;;10244311;28;20228;-76
2023/06/14 14:12:47;;;;;;;3.50;1.67;;;;;34.80;101037.00;;;;10240056;28;20210;-76
2023/06/14 14:17:51;;;;;;;1.70;1.48;;;;;34.90;101042.00;;;;10241462;28;20280;-76
2023/06/14 14:22:54;;;;;;;4.07;1.58;;;;;34.50;101048.00;;;;10238796;28;20253;-76
2023/06/14 14:27:56;;;;;;;2.83;1.50;;;;;34.20;101032.00;;;;10219952;28;20217;-76
2023/06/14 14:32:58;;;;;;;5.28;1.83;;;;;34.00;101042.00;;;;10250039;28;20209;-77
2023/06/14 14:38:03;;;;;;;2.53;1.60;;;;;34.00;101049.00;;;;10226106;28;20206;-75
2023/06/14 14:43:05;;;;;;;3.00;1.77;;;;;34.70;101042.00;;;;10230877;28;20210;-75
2023/06/14 14:48:07;;;;;;;1.88;1.70;;;;;35.10;101049.00;;;;10257478;28;20305;-76
2023/06/14 14:53:09;;;;;;;3.47;1.77;;;;;35.40;101050.00;;;;10259266;28;20287;-76
2023/06/14 14:58:14;;;;;;;2.67;1.90;;;;;36.50;101029.00;;;;10254263;28;20205;-75
2023/06/14 15:03:16;;;;;;;2.05;1.85;;;;;37.30;101043.00;;;;10235418;28;20576;-76
2023/06/14 15:08:18;;;;;;;3.30;2.00;;;;;37.90;101038.00;;;;10238232;28;20229;-75
2023/06/14 15:13:22;;;;;;;2.95;1.50;;;;;38.40;101031.00;;;;10241701;28;20202;-82
2023/06/14 15:18:24;;;;;;;5.10;1.90;;;;;39.10;101034.00;;;;10247013;28;20687;-80
2023/06/14 15:23:27;;;;;;;2.15;1.95;;;;;39.80;101033.00;;;;10222215;28;20198;-75
2023/06/14 15:28:29;;;;;;;2.70;2.00;;;;;40.40;101030.00;;;;10236191;28;20527;-75
2023/06/14 15:33:31;;;;;;;2.22;1.77;;;;;39.40;101028.00;;;;10227010;28;20721;-76
2023/06/14 15:38:33;;;;;;;2.88;2.00;;;;;35.00;101041.00;;;;10221790;28;20217;-75
2023/06/14 15:43:35;;;;;;;3.08;1.75;;;;;34.50;101036.00;;;;10225174;28;20279;-75
2023/06/14 15:48:38;;;;;;;4.38;1.90;;;;;33.80;101046.00;;;;10227260;28;20631;-76
2023/06/14 15:53:40;;;;;;;5.35;1.63;;;;;32.00;101042.00;;;;10235547;28;20202;-77
2023/06/14 15:58:42;;;;;;;4.25;1.92;;;;;30.80;101036.00;;;;10229845;28;20205;-75
2023/06/14 16:03:44;;;;;;;6.10;1.88;;;;;30.30;101033.00;;;;10236716;28;20202;-76
2023/06/14 16:08:47;;;;;;;5.28;1.70;;;;;29.70;101037.00;;;;10231855;28;20561;-75
2023/06/14 16:13:48;;;;;;;3.05;1.77;;;;;29.40;101037.00;;;;10233995;28;20248;-78
2023/06/14 16:18:50;;;;;;;2.50;1.60;;;;;29.30;101032.00;;;;10232201;28;20229;-78
2023/06/14 16:23:53;;;;;;;3.17;1.83;;;;;29.20;101032.00;;;;10240983;28;20198;-78
2023/06/14 16:28:55;;;;;;;5.25;1.77;;;;;28.80;101032.00;;;;10244800;28;20683;-76
2023/06/14 16:33:57;;;;;;;3.50;1.83;;;;;28.40;101030.00;;;;10246217;28;20564;-76
2023/06/14 16:38:59;;;;;;;2.33;1.50;;;;;28.30;101032.00;;;;10251165;28;20781;-76
2023/06/14 16:44:03;;;;;;;3.58;1.30;;;;;28.20;101035.00;;;;10252261;28;20640;-76
2023/06/14 16:49:06;;;;;;;5.10;2.05;;;;;28.00;101035.00;;;;10243297;28;20299;-76
2023/06/14 16:54:14;;;;;;;2.42;1.40;;;;;27.70;101038.00;;;;10242160;28;20201;-76
2023/06/14 16:59:17;;;;;;;4.22;1.83;;;;;27.60;101052.00;;;;10245445;28;20201;-76
2023/06/14 17:04:19;;;;;;;5.47;1.80;;;;;27.50;101043.00;;;;10241096;28;20236;-78
2023/06/14 17:09:21;;;;;;;3.65;1.50;;;;;27.30;101058.00;;;;10228251;28;20225;-78
2023/06/14 17:14:23;;;;;;;2.17;1.40;;;;;27.20;101058.00;;;;10246342;28;20232;-78
2023/06/14 17:19:26;;;;;;;2.85;1.50;;;;;27.10;101058.00;;;;10215645;28;20198;-78
2023/06/14 17:24:28;;;;;;;4.45;1.40;;;;;26.90;101064.00;;;;10239028;28;20201;-76
2023/06/14 17:29:30;;;;;;;2.53;1.40;;;;;26.80;101078.00;;;;10233582;28;20233;-74
2023/06/14 17:34:32;;;;;;;2.03;1.55;;;;;26.70;101071.00;;;;10244793;28;20229;-77
2023/06/14 17:39:36;;;;;;;1.58;1.27;;;;;26.70;101075.00;;;;10247079;28;20538;-78
2023/06/14 17:44:38;;;;;;;5.30;1.13;;;;;26.50;101070.00;;;;10243125;28;20277;-78
2023/06/14 17:49:40;;;;;;;8.55;1.95;;;;;26.40;101065.00;;;;10244141;28;20280;-79
2023/06/14 17:54:42;;;;;;;1.33;0.93;;;;;26.30;101076.00;;;;10230175;28;20198;-75
2023/06/14 17:59:45;;;;;;;2.60;1.17;;;;;26.20;101084.00;;;;10241778;28;20205;-79
2023/06/14 18:04:48;;;;;;;2.70;1.48;;;;;26.10;101084.00;;;;10231201;28;20200;-77
2023/06/14 18:09:57;;;;;;;3.83;1.20;;;;;26.00;101079.00;;;;10206612;28;20996;-79
2023/06/14 18:15:00;;;;;;;4.78;1.50;;;;;26.00;101087.00;;;;10240648;28;20210;-80
2023/06/14 18:20:03;;;;;;;2.67;1.23;;;;;25.80;101096.00;;;;10242630;28;20197;-79
2023/06/14 18:25:05;;;;;;;3.17;1.13;;;;;25.70;101103.00;;;;10232928;28;20221;-75
2023/06/14 18:30:08;;;;;;;3.83;1.23;;;;;25.50;101093.00;;;;10243725;28;20793;-80
2023/06/14 18:35:15;;;;;;;4.00;1.40;;;;;25.40;101104.00;;;;10226636;28;20647;-81
2023/06/14 18:40:19;;;;;;;2.00;1.20;;;;;25.20;101108.00;;;;10216112;28;20663;-80
2023/06/14 18:45:21;;;;;;;2.17;1.42;;;;;25.10;101112.00;;;;10229981;28;20234;-74
2023/06/14 18:50:24;;;;;;;7.40;1.60;;;;;25.00;101117.00;;;;10215871;28;20197;-76
2023/06/14 18:55:26;;;;;;;5.05;1.63;;;;;24.90;101110.00;;;;10229046;28;20201;-80
2023/06/14 19:00:29;;;;;;;3.38;1.10;;;;;24.80;101108.00;;;;10230122;28;20743;-78
2023/06/14 19:05:32;;;;;;;7.15;1.67;;;;;24.60;101111.00;;;;10231719;28;20328;-81
2023/06/14 19:10:34;;;;;;;2.47;1.60;;;;;24.50;101114.00;;;;10227295;28;20754;-80
2023/06/14 19:15:37;;;;;;;3.42;1.40;;;;;24.50;101114.00;;;;10236190;28;20197;-80
2023/06/14 19:20:39;;;;;;;4.70;1.50;;;;;24.60;101118.00;;;;10241991;28;20205;-80
2023/06/14 19:25:42;;;;;;;5.68;1.80;;;;;24.30;101124.00;;;;10232508;28;20632;-80
2023/06/14 19:30:44;;;;;;;6.80;1.60;;;;;24.10;101136.00;;;;10241514;28;20791;-79
2023/06/14 19:35:46;;;;;;;1.40;1.30;;;;;23.80;101136.00;;;;10220356;28;20218;-78
2023/06/14 19:40:48;;;;;;;4.80;1.73;;;;;23.60;101140.00;;;;10237251;28;20209;-78
2023/06/14 19:45:50;;;;;;;2.35;1.70;;;;;23.30;101148.00;;;;10240698;28;20231;-79
2023/06/14 19:50:52;;;;;;;5.03;1.80;;;;;23.10;101150.00;;;;10236609;28;20208;-79
2023/06/14 19:55:55;;;;;;;3.00;1.35;;;;;22.80;101159.00;;;;10237073;28;20217;-80
2023/06/14 20:00:57;;;;;;;3.25;1.67;;;;;22.60;101166.00;;;;10234563;28;20770;-81
2023/06/14 20:05:59;;;;;;;5.28;1.55;;;;;22.40;101177.00;;;;10222531;28;20291;-74
2023/06/14 20:11:01;;;;;;;4.20;1.40;;;;;22.20;101183.00;;;;10236134;28;20623;-74
2023/06/14 20:16:03;;;;;;;3.00;1.33;;;;;22.00;101184.00;;;;10244217;28;20217;-73
2023/06/14 20:21:06;;;;;;;2.45;1.40;;;;;21.80;101179.00;;;;10237092;28;20210;-73
2023/06/14 20:26:08;;;;;;;3.70;1.90;;;;;21.70;101197.00;;;;10220204;28;20583;-76
2023/06/14 20:31:12;;;;;;;6.47;2.10;;;;;21.70;101195.00;;;;10240670;28;20209;-75
2023/06/14 20:36:15;;;;;;;5.10;2.08;;;;;21.60;101209.00;;;;10228545;28;20644;-73
2023/06/14 20:41:17;;;;;;;4.72;1.73;;;;;21.50;101206.00;;;;10236512;28;20288;-73
2023/06/14 20:46:20;;;;;;;7.90;2.50;;;;;21.30;101205.00;;;;10226016;28;20227;-74
2023/06/14 20:51:22;;;;;;;5.03;2.00;;;;;21.20;101208.00;;;;10218997;28;20257;-76
2023/06/14 20:56:24;;;;;;;5.45;2.22;;;;;21.20;101203.00;;;;10224853;28;20625;-75
2023/06/14 21:01:34;;;;;;;2.33;2.05;;;;;21.20;101213.00;;;;10229717;28;20205;-76
2023/06/14 21:06:39;;;;;;;2.47;1.80;;;;;21.10;101218.00;;;;10220190;28;20565;-78
2023/06/14 21:11:40;;;;;;;4.07;2.33;;;;;21.00;101213.00;;;;10238403;28;20214;-78
2023/06/14 21:16:42;;;;;;;7.07;2.10;;;;;20.80;101215.00;;;;10241655;28;20217;-79
2023/06/14 21:21:45;;;;;;;2.65;1.70;;;;;20.70;101216.00;;;;10249442;28;20997;-78
2023/06/14 21:26:47;;;;;;;4.90;2.00;;;;;20.60;101215.00;;;;10231166;28;20360;-78
2023/06/14 21:31:50;;;;;;;3.58;1.90;;;;;20.50;101218.00;;;;10252910;28;20248;-78
2023/06/14 21:36:52;;;;;;;4.45;2.20;;;;;20.40;101221.00;;;;10235783;28;20221;-79
2023/06/14 21:41:54;;;;;;;5.85;2.20;;;;;20.30;101228.00;;;;10249896;28;20205;-79
2023/06/14 21:46:56;;;;;;;4.97;1.80;;;;;20.20;101226.00;;;;10238886;28;20245;-74
2023/06/14 21:51:58;;;;;;;2.85;2.00;;;;;20.10;101223.00;;;;10240810;28;20254;-76
2023/06/14 21:57:00;;;;;;;4.78;2.35;;;;;20.00;101227.00;;;;10227920;28;20214;-74
2023/06/14 22:02:03;;;;;;;5.10;1.85;;;;;19.90;101228.00;;;;10235569;28;20289;-74
2023/06/14 22:07:06;;;;;;;7.60;2.63;;;;;19.80;101235.00;;;;10233873;28;20269;-74
2023/06/14 22:12:15;;;;;;;7.65;2.20;;;;;19.70;101232.00;;;;10229563;28;20284;-81
2023/06/14 22:17:21;;;;;;;8.15;2.55;;;;;19.60;101233.00;;;;10240053;28;20272;-81
2023/06/14 22:22:27;;;;;;;8.95;2.40;;;;;19.40;101234.00;;;;10236789;28;20288;-75
2023/06/14 22:27:29;;;;;;;3.70;2.40;;;;;19.30;101240.00;;;;10237983;28;20569;-74
2023/06/14 22:32:34;;;;;;;10.05;2.53;;;;;19.20;101242.00;;;;10235918;28;20727;-75
2023/06/14 22:37:37;;;;;;;4.18;2.60;;;;;19.10;101241.00;;;;10236226;28;20221;-75
2023/06/14 22:42:45;;;;;;;7.72;2.65;;;;;19.00;101248.00;;;;10223484;28;20288;-78
2023/06/14 22:47:52;;;;;;;8.52;2.50;;;;;18.80;101253.00;;;;10210348;28;20215;-78
2023/06/14 22:52:54;;;;;;;2.92;2.60;;;;;18.70;101249.00;;;;10222385;28;20893;-78
2023/06/14 22:57:56;;;;;;;3.70;2.08;;;;;18.50;101264.00;;;;10243948;28;20221;-78
2023/06/14 23:02:58;;;;;;;3.45;2.40;;;;;18.30;101253.00;;;;10237018;28;20218;-74
2023/06/14 23:08:01;;;;;;;3.80;2.38;;;;;18.20;101258.00;;;;10249209;28;20202;-78
2023/06/14 23:13:03;;;;;;;11.13;3.03;;;;;18.00;101259.00;;;;10224603;28;20198;-75
2023/06/14 23:18:05;;;;;;;3.53;2.30;;;;;17.90;101254.00;;;;10237112;28;20265;-76
2023/06/14 23:23:07;;;;;;;5.03;2.50;;;;;17.70;101254.00;;;;10230902;28;20212;-73
2023/06/14 23:28:09;;;;;;;5.32;2.90;;;;;17.50;101252.00;;;;10238787;28;20256;-74
2023/06/14 23:33:15;;;;;;;4.38;2.45;;;;;17.40;101252.00;;;;10235292;28;20316;-75
2023/06/14 23:38:18;;;;;;;2.55;2.33;;;;;17.30;101255.00;;;;10229740;28;20209;-74
2023/06/14 23:43:21;;;;;;;5.72;2.60;;;;;17.20;101257.00;;;;10237245;28;20202;-76
2023/06/14 23:48:26;;;;;;;4.77;2.53;;;;;17.00;101261.00;;;;10229809;28;20201;-74
2023/06/14 23:53:28;;;;;;;5.73;2.60;;;;;16.90;101259.00;;;;10230266;28;20218;-75
2023/06/14 23:58:30;;;;;;;5.60;2.90;;;;;16.80;101259.00;;;;10231546;28;20826;-76
